createdAt,value
2023-02-01T00:00:33.845Z,3.1
2023-02-01T00:05:33.986Z,3.3
2023-02-01T00:10:33.734Z,3.3
2023-02-01T00:15:34.173Z,2.9
2023-02-01T00:20:34.320Z,2.9
2023-02-01T00:25:34.424Z,2.8
2023-02-01T00:30:33.689Z,2.8
2023-02-01T00:35:33.919Z,3.1
2023-02-01T00:40:34.191Z,3.1
2023-02-01T00:45:36.437Z,2.7
2023-02-01T00:50:33.549Z,2.7
2023-02-01T00:55:34.076Z,2.6
2023-02-01T01:00:34.381Z,2.6
2023-02-01T01:05:34.089Z,2.7
2023-02-01T01:10:33.556Z,2.7
2023-02-01T01:15:33.846Z,2.7
2023-02-01T01:20:33.960Z,2.7
2023-02-01T01:25:34.144Z,2.7
2023-02-01T01:30:34.150Z,2.7
2023-02-01T01:35:34.481Z,2.8
2023-02-01T01:40:33.958Z,2.8
2023-02-01T01:45:34.206Z,2.5
2023-02-01T01:50:33.533Z,2.5
2023-02-01T01:55:33.740Z,2.2
2023-02-01T02:00:34.473Z,2.2
2023-02-01T02:05:33.672Z,2.2
2023-02-01T02:10:34.003Z,2.2
2023-02-01T02:15:34.120Z,2.1
2023-02-01T02:20:34.325Z,2.1
2023-02-01T02:25:34.603Z,2.2
2023-02-01T02:30:33.924Z,2.2
2023-02-01T02:35:34.027Z,2.2
2023-02-01T02:40:33.938Z,2.2
2023-02-01T02:45:34.268Z,2.2
2023-02-01T02:50:34.510Z,2.2
2023-02-01T02:55:34.169Z,2.2
2023-02-01T03:00:34.277Z,2.2
2023-02-01T03:05:33.763Z,2.2
2023-02-01T03:10:33.970Z,2.2
2023-02-01T03:15:33.960Z,2.2
2023-02-01T03:20:33.766Z,2.2
2023-02-01T03:25:33.873Z,2.2
2023-02-01T08:35:44.362Z,2.4
2023-02-01T08:40:34.839Z,2.4
2023-02-01T08:45:34.051Z,3
2023-02-01T08:50:34.344Z,3
2023-02-01T08:55:34.226Z,3
2023-02-01T09:00:34.774Z,3
2023-02-01T09:06:22.695Z,1.8
2023-02-01T09:10:35.903Z,1.8
2023-02-01T09:15:34.851Z,2.2
2023-02-01T09:20:34.019Z,2.2
2023-02-01T09:25:34.069Z,2.1
2023-02-01T09:30:33.999Z,2.1
2023-02-01T09:35:34.107Z,2.7
2023-02-01T09:40:34.491Z,2.7
2023-02-01T09:45:34.475Z,2.7
2023-02-01T09:50:34.738Z,2.7
2023-02-01T09:55:34.076Z,2.3
2023-02-01T10:00:34.277Z,2.3
2023-02-01T10:05:34.685Z,2.5
2023-02-01T10:10:34.271Z,2.5
2023-02-01T10:15:34.219Z,2.6
2023-02-01T10:20:34.377Z,2.6
2023-02-01T10:25:34.440Z,2.8
2023-02-01T10:30:35.923Z,2.8
2023-02-01T10:35:34.025Z,2.8
2023-02-01T10:40:34.419Z,2.8
2023-02-01T10:45:34.166Z,2.6
2023-02-01T10:50:34.535Z,2.6
2023-02-01T10:55:34.754Z,1.3
2023-02-01T11:00:33.955Z,1.3
2023-02-01T11:05:34.290Z,2.1
2023-02-01T11:10:34.837Z,2.1
2023-02-01T11:15:33.899Z,1.8
2023-02-01T11:20:33.875Z,1.8
2023-02-01T11:25:34.165Z,1.8
2023-02-01T11:30:34.612Z,1.8
2023-02-01T11:35:34.885Z,2.2
2023-02-01T11:40:33.965Z,2.2
2023-02-01T11:45:33.934Z,2.1
2023-02-01T11:50:34.330Z,2.1
2023-02-01T11:55:34.502Z,3.1
2023-02-01T12:00:34.617Z,3.1
2023-02-01T12:05:34.557Z,3
2023-02-01T12:10:34.720Z,3
2023-02-01T12:15:34.009Z,2.7
2023-02-01T12:20:34.571Z,2.7
2023-02-01T12:25:33.981Z,3
2023-02-01T12:30:34.187Z,3
2023-02-01T12:35:34.541Z,2.8
2023-02-01T12:40:34.596Z,2.8
2023-02-01T12:45:34.887Z,3.9
2023-02-01T12:50:34.232Z,3.9
2023-02-01T12:55:34.289Z,2.8
2023-02-01T13:00:34.445Z,2.8
2023-02-01T13:05:34.480Z,2.2
2023-02-01T13:10:34.622Z,2.2
2023-02-01T13:15:34.610Z,2.3
2023-02-01T13:20:34.676Z,2.3
2023-02-01T13:25:34.667Z,1.9
2023-02-01T13:30:34.941Z,1.9
2023-02-01T13:35:34.057Z,1.9
2023-02-01T13:40:33.990Z,1.9
2023-02-01T13:45:34.282Z,2.5
2023-02-01T13:50:34.285Z,2.5
2023-02-01T13:55:34.510Z,1.9
2023-02-01T14:00:37.501Z,1.9
2023-02-01T14:05:34.825Z,2.4
2023-02-01T14:10:34.936Z,2.4
2023-02-01T14:15:34.070Z,2.3
2023-02-01T14:20:34.460Z,2.3
2023-02-01T14:25:34.671Z,2.1
2023-02-01T14:30:34.170Z,2.1
2023-02-01T14:35:34.174Z,3.1
2023-02-01T14:40:34.533Z,3.1
2023-02-01T14:45:34.945Z,4.7
2023-02-01T14:50:34.251Z,4.7
2023-02-01T14:55:34.345Z,2.8
2023-02-01T15:00:34.032Z,2.8
2023-02-01T15:05:34.395Z,1.3
2023-02-01T15:10:34.007Z,1.3
2023-02-01T15:15:35.019Z,1.8
2023-02-01T15:20:34.494Z,1.8
2023-02-01T15:25:34.289Z,1.8
2023-02-01T15:30:34.787Z,1.8
2023-02-01T15:35:34.916Z,1.8
2023-02-01T15:40:34.104Z,1.8
2023-02-01T15:45:34.053Z,1.8
2023-02-01T15:50:34.512Z,1.8
2023-02-01T15:55:34.866Z,2.2
2023-02-01T16:00:34.985Z,2.2
2023-02-01T16:05:34.665Z,1.8
2023-02-01T16:10:34.249Z,1.8
2023-02-01T16:15:34.563Z,1.7
2023-02-01T16:20:34.925Z,1.7
2023-02-01T16:25:34.138Z,1.3
2023-02-01T16:30:34.583Z,1.3
2023-02-01T16:35:34.930Z,1.8
2023-02-01T16:40:35.094Z,1.8
2023-02-01T16:45:34.238Z,1.4
2023-02-01T16:50:34.405Z,1.4
2023-02-01T16:55:34.676Z,1.7
2023-02-01T17:00:34.272Z,1.7
2023-02-01T17:05:34.815Z,1.8
2023-02-01T17:10:35.157Z,1.8
2023-02-01T17:15:34.474Z,1.8
2023-02-01T17:20:34.519Z,1.8
2023-02-01T17:25:34.754Z,2.5
2023-02-01T17:30:35.016Z,2.5
2023-02-01T17:35:34.223Z,1.9
2023-02-01T17:40:34.536Z,1.9
2023-02-01T17:45:34.850Z,2.9
2023-02-01T17:50:34.924Z,2.9
2023-02-01T17:55:35.049Z,2.6
2023-02-01T18:00:38.242Z,2.6
2023-02-01T18:05:34.102Z,2.6
2023-02-01T18:10:34.176Z,2.6
2023-02-01T18:15:34.277Z,2.6
2023-02-01T18:20:34.307Z,2.6
2023-02-01T18:25:34.371Z,2.7
2023-02-01T18:30:34.578Z,2.7
2023-02-01T18:35:34.651Z,2.7
2023-02-01T18:40:34.750Z,2.7
2023-02-01T18:45:34.797Z,2.5
2023-02-01T18:50:34.917Z,2.5
2023-02-01T18:55:35.051Z,3.1
2023-02-01T19:00:34.147Z,3.1
2023-02-01T19:05:34.223Z,2.3
2023-02-01T19:10:34.812Z,2.3
2023-02-01T19:15:34.363Z,2.7
2023-02-01T19:20:34.523Z,2.7
2023-02-01T19:25:34.568Z,3.1
2023-02-01T19:30:34.482Z,3.1
2023-02-01T19:35:34.700Z,2.9
2023-02-01T19:40:34.798Z,2.9
2023-02-01T19:45:34.785Z,4.8
2023-02-01T19:50:35.228Z,4.8
2023-02-01T19:55:34.875Z,3.9
2023-02-01T20:00:34.114Z,3.9
2023-02-01T20:05:34.128Z,3
2023-02-01T20:10:34.238Z,3
2023-02-01T20:15:33.422Z,2.2
2023-02-01T20:20:33.657Z,2.2
2023-02-01T20:25:34.702Z,2.2
2023-02-01T20:30:34.940Z,2.2
2023-02-01T20:35:34.417Z,2.2
2023-02-01T20:40:34.522Z,2.2
2023-02-01T20:45:34.609Z,3
2023-02-01T20:50:34.527Z,3
2023-02-01T20:55:35.186Z,2.9
2023-02-01T21:00:34.718Z,2.9
2023-02-01T21:05:34.791Z,3.1
2023-02-01T21:10:34.964Z,3.1
2023-02-01T21:15:35.113Z,2.7
2023-02-01T21:20:35.163Z,2.7
2023-02-01T21:25:34.879Z,3.6
2023-02-01T21:30:35.101Z,3.6
2023-02-01T21:35:34.798Z,3.6
2023-02-01T21:40:34.917Z,3.6
2023-02-01T21:45:36.021Z,3.4
2023-02-01T21:50:35.492Z,3.4
2023-02-01T21:55:34.786Z,3.1
2023-02-01T22:00:34.435Z,3.1
2023-02-01T22:05:34.718Z,3.3
2023-02-01T22:10:34.908Z,3.3
2023-02-01T22:15:34.933Z,3.6
2023-02-01T22:20:35.015Z,3.6
2023-02-01T22:25:35.134Z,3.3
2023-02-01T22:30:35.414Z,3.3
2023-02-01T22:35:34.831Z,3.5
2023-02-01T22:40:36.262Z,3.5
2023-02-01T22:45:34.267Z,3.9
2023-02-01T22:50:35.113Z,3.9
2023-02-01T22:55:34.508Z,3.5
2023-02-01T23:00:35.013Z,3.5
2023-02-01T23:05:35.267Z,3.7
2023-02-01T23:10:34.448Z,3.7
2023-02-01T23:15:34.668Z,4.4
2023-02-01T23:20:34.738Z,4.4
2023-02-01T23:25:34.825Z,3.6
2023-02-01T23:30:35.293Z,3.6
2023-02-01T23:35:34.327Z,4
2023-02-01T23:40:34.682Z,4
2023-02-01T23:45:34.624Z,3.6
2023-02-01T23:55:35.359Z,3.2
